Time;durP1;ratioP1;P1;durP2;ratioP2;P2;SDS_P1;SDS_P2;PMS_P1;PMS_P2;Temp;Humidity;BMP_temperature;BMP_pressure;BME280_temperature;BME280_humidity;BME280_pressure;Samples;Min_cycle;Max_cycle;Signal;HPM_P1;HPM_P2
2024/04/01 20:13:36;;;;;;;77.95;11.80;;;;;;;19.01;46.90;98332.02;1887105;76;26785;-61
2024/04/01 20:16:06;;;;;;;70.12;11.93;;;;;;;18.79;47.13;98323.30;1858032;77;25698;-62
2024/04/01 20:18:32;;;;;;;68.52;10.95;;;;;;;18.64;47.35;98324.67;1858109;77;27494;-62
2024/04/01 20:21:04;;;;;;;77.87;12.20;;;;;;;18.48;47.70;98317.06;1788094;80;26257;-63
2024/04/01 20:23:32;;;;;;;82.80;34.10;;;;;;;18.35;47.98;98317.41;1820328;78;25601;-63
2024/04/01 20:26:04;;;;;;;63.33;21.20;;;;;;;18.24;48.26;98318.92;1788237;80;25640;-62
2024/04/01 20:28:34;;;;;;;59.08;10.50;;;;;;;18.16;48.58;98316.84;1788839;78;25452;-62
2024/04/01 20:31:05;;;;;;;73.85;11.95;;;;;;;18.09;48.78;98315.56;1820471;78;27506;-62
2024/04/01 20:33:36;;;;;;;64.75;14.95;;;;;;;18.04;48.92;98308.56;1788068;80;25979;-61
2024/04/01 20:36:11;;;;;;;71.47;24.00;;;;;;;18.00;49.08;98307.84;1788102;80;25406;-62
2024/04/01 20:38:42;;;;;;;104.65;69.22;;;;;;;17.95;49.16;98306.16;1780680;80;25783;-62
2024/04/01 20:41:14;;;;;;;97.05;79.65;;;;;;;17.90;49.19;98301.30;1820359;78;25551;-61
2024/04/01 20:43:49;;;;;;;110.57;79.35;;;;;;;17.85;49.59;98299.57;1785422;80;27492;-61
2024/04/01 20:46:22;;;;;;;66.17;11.28;;;;;;;17.80;49.80;98291.81;1787584;80;25729;-62
2024/04/01 20:48:51;;;;;;;54.08;10.65;;;;;;;17.78;49.74;98305.89;1788106;80;25437;-62
2024/04/01 20:51:20;;;;;;;70.57;11.10;;;;;;;17.73;49.64;98302.22;1787967;80;25403;-61
2024/04/01 20:53:48;;;;;;;65.80;10.55;;;;;;;17.69;50.00;98302.27;1788098;80;25393;-61
2024/04/01 20:56:35;;;;;;;73.10;13.80;;;;;;;17.64;50.26;98307.37;1788009;80;27477;-62
2024/04/01 20:59:19;;;;;;;64.27;14.63;;;;;;;17.58;50.30;98299.44;1788068;80;25219;-62
2024/04/01 21:01:53;;;;;;;64.90;12.43;;;;;;;17.54;50.37;98296.74;1787856;80;25625;-63
2024/04/01 21:04:24;;;;;;;59.93;9.43;;;;;;;17.49;50.68;98299.31;1777211;80;25609;-61
2024/04/01 21:06:54;;;;;;;65.30;9.78;;;;;;;17.49;50.81;98295.21;1820417;78;25615;-62
2024/04/01 21:09:22;;;;;;;61.08;14.80;;;;;;;17.47;50.82;98303.05;1789185;79;28055;-62
2024/04/01 21:11:49;;;;;;;73.20;11.30;;;;;;;17.45;50.81;98301.31;1820233;78;25426;-63
2024/04/01 21:14:16;;;;;;;59.05;10.30;;;;;;;17.41;51.05;98299.18;1788079;80;25557;-62
2024/04/01 21:16:42;;;;;;;73.15;9.93;;;;;;;17.37;51.41;98298.45;1820371;78;25610;-63
2024/04/01 21:19:08;;;;;;;53.48;10.88;;;;;;;17.37;51.38;98299.81;1788043;80;25435;-61
2024/04/01 21:21:34;;;;;;;66.28;10.60;;;;;;;17.38;51.19;98301.95;1820370;78;28056;-62
2024/04/01 21:24:02;;;;;;;61.80;10.85;;;;;;;17.35;51.29;98303.55;1787553;80;25654;-63
2024/04/01 21:26:29;;;;;;;76.67;35.50;;;;;;;17.33;51.24;98298.48;1787526;80;25590;-62
2024/04/01 21:28:55;;;;;;;65.45;11.03;;;;;;;17.29;51.33;98302.41;1787573;80;25727;-67
2024/04/01 21:31:21;;;;;;;84.77;24.43;;;;;;;17.28;51.49;98300.27;1787597;80;25591;-67
2024/04/01 21:33:49;;;;;;;67.55;15.32;;;;;;;17.27;51.56;98301.44;1787643;80;27467;-65
2024/04/01 21:36:25;;;;;;;65.40;10.72;;;;;;;17.24;51.67;98300.87;1787613;80;25641;-65
2024/04/01 21:38:52;;;;;;;59.58;9.90;;;;;;;17.24;51.96;98296.01;1788454;79;26288;-65
2024/04/01 21:41:19;;;;;;;46.33;10.58;;;;;;;17.21;51.90;98294.84;1819359;78;25701;-64
2024/04/01 21:43:47;;;;;;;67.30;10.93;;;;;;;17.20;52.03;98288.41;1819814;78;25549;-64
2024/04/01 21:46:14;;;;;;;59.67;8.40;;;;;;;17.21;52.17;98286.64;1787646;80;27472;-65
2024/04/01 21:48:41;;;;;;;74.17;10.38;;;;;;;17.20;52.19;98286.48;1819671;78;25401;-64
2024/04/01 21:51:07;;;;;;;58.73;9.63;;;;;;;17.18;52.15;98282.02;1819730;78;25428;-64
2024/04/01 21:53:34;;;;;;;62.70;10.43;;;;;;;17.18;52.16;98286.87;1787422;80;25579;-64
2024/04/01 21:56:00;;;;;;;90.32;75.50;;;;;;;17.20;52.50;98291.14;1819763;78;25613;-63
2024/04/01 21:58:27;;;;;;;78.72;70.47;;;;;;;17.23;52.36;98297.17;1787409;80;27475;-64
2024/04/01 22:00:54;;;;;;;61.10;9.20;;;;;;;17.22;52.35;98284.71;1787437;80;25539;-64
2024/04/01 22:03:20;;;;;;;50.12;11.15;;;;;;;17.27;52.39;98323.89;1819749;78;25522;-63
2024/04/01 22:05:47;;;;;;;95.20;80.87;;;;;;;17.27;52.64;98353.95;1755585;80;27377;-67
2024/04/01 22:08:13;;;;;;;101.07;80.03;;;;;;;17.28;52.74;98324.86;1818025;78;25809;-67
2024/04/01 22:10:45;;;;;;;78.72;12.82;;;;;;;17.36;52.62;98335.91;1786339;80;27845;-62
2024/04/01 22:13:07;;;;;;;75.90;15.43;;;;;;;17.48;52.54;98335.23;1817692;78;25701;-63
2024/04/01 22:15:34;;;;;;;87.02;13.48;;;;;;;17.55;52.37;98322.88;1786461;80;25809;-63
2024/04/01 22:18:00;;;;;;;60.25;11.20;;;;;;;17.61;52.13;98305.47;1818792;78;25636;-59
2024/04/01 22:20:26;;;;;;;71.82;12.05;;;;;;;17.66;51.95;98309.13;1786592;80;25624;-60
2024/04/01 22:22:52;;;;;;;58.42;10.32;;;;;;;17.67;52.06;98325.70;1819291;78;27435;-60
2024/04/01 22:25:18;;;;;;;78.70;12.53;;;;;;;17.70;51.88;98326.27;1819637;78;25526;-60
2024/04/01 22:27:45;;;;;;;70.90;12.37;;;;;;;17.74;51.75;98306.49;1787391;80;25389;-57
2024/04/01 22:30:11;;;;;;;75.55;11.05;;;;;;;17.73;51.59;98311.20;1787412;80;25743;-58
2024/04/01 22:32:37;;;;;;;65.80;11.35;;;;;;;17.77;51.66;98323.45;1787549;80;25637;-59
2024/04/01 22:35:05;;;;;;;72.67;12.43;;;;;;;17.79;51.47;98313.48;1787482;80;28138;-58
2024/04/01 22:37:32;;;;;;;72.27;11.20;;;;;;;17.77;51.55;98311.16;1787355;80;25465;-61
2024/04/01 22:39:58;;;;;;;63.68;12.43;;;;;;;17.76;51.54;98304.16;1787532;80;25418;-61
2024/04/01 22:42:24;;;;;;;71.53;11.35;;;;;;;17.73;51.53;98309.83;1756857;80;25916;-61
2024/04/01 22:44:50;;;;;;;59.65;12.18;;;;;;;17.69;51.60;98295.42;1787548;80;25610;-60
2024/04/01 22:47:16;;;;;;;64.20;11.70;;;;;;;17.66;51.45;98291.36;1787504;80;27545;-61
2024/04/01 22:49:43;;;;;;;67.32;11.38;;;;;;;17.62;51.47;98287.87;1787336;80;27423;-61
2024/04/01 22:52:09;;;;;;;56.90;10.60;;;;;;;17.57;51.73;98296.51;1787363;80;25421;-62
2024/04/01 22:54:37;;;;;;;65.72;10.35;;;;;;;17.50;52.20;98300.87;1787416;80;25873;-62
2024/04/01 22:57:05;;;;;;;66.53;12.15;;;;;;;17.44;51.95;98307.95;1787453;80;25457;-59
2024/04/01 22:59:33;;;;;;;81.35;12.88;;;;;;;17.37;52.19;98310.73;1787725;80;27480;-60
2024/04/01 23:02:01;;;;;;;65.00;10.23;;;;;;;17.31;52.35;98326.77;1787329;80;25413;-60
2024/04/01 23:04:28;;;;;;;70.37;10.50;;;;;;;17.18;52.50;98312.83;1787771;80;25323;-60
2024/04/01 23:06:55;;;;;;;73.30;12.23;;;;;;;17.11;52.63;98316.19;1787345;80;27310;-60
2024/04/01 23:09:21;;;;;;;64.42;12.82;;;;;;;17.01;52.93;98317.03;1787424;80;25564;-60
2024/04/01 23:11:50;;;;;;;62.70;11.50;;;;;;;16.95;53.08;98319.42;1756843;80;27900;-61
2024/04/01 23:14:17;;;;;;;79.45;12.63;;;;;;;16.89;52.97;98323.73;1787409;80;25396;-61
2024/04/01 23:16:44;;;;;;;64.77;12.40;;;;;;;16.85;53.42;98331.19;1787398;80;25570;-61
2024/04/01 23:19:11;;;;;;;62.73;11.40;;;;;;;16.77;53.66;98332.56;1787372;80;25630;-61
2024/04/01 23:21:38;;;;;;;69.10;13.03;;;;;;;16.70;53.84;98331.23;1787434;80;25385;-62
2024/04/01 23:24:12;;;;;;;69.32;11.35;;;;;;;16.65;53.97;98322.07;1787388;80;27549;-62
2024/04/01 23:26:38;;;;;;;70.97;13.03;;;;;;;16.59;54.37;98316.27;1787361;80;25583;-62
2024/04/01 23:29:05;;;;;;;73.92;12.33;;;;;;;16.56;54.45;98311.59;1787346;80;25626;-60
2024/04/01 23:31:31;;;;;;;74.30;11.90;;;;;;;16.53;54.60;98306.95;1787378;80;25961;-61
2024/04/01 23:33:57;;;;;;;64.17;12.18;;;;;;;16.52;54.84;98307.34;1787385;80;25623;-62
2024/04/01 23:36:24;;;;;;;69.67;11.63;;;;;;;16.48;54.74;98307.36;1787387;80;27465;-61
2024/04/01 23:38:56;;;;;;;67.60;11.18;;;;;;;16.48;55.04;98314.75;1787285;80;25546;-61
2024/04/01 23:41:23;;;;;;;75.30;10.72;;;;;;;16.43;54.88;98304.45;1787393;80;25511;-60
2024/04/01 23:43:55;;;;;;;65.72;12.05;;;;;;;16.40;55.19;98306.61;1787357;80;25427;-61
2024/04/01 23:46:24;;;;;;;67.37;10.78;;;;;;;16.34;55.11;98300.59;1787415;80;25621;-61
2024/04/01 23:48:50;;;;;;;62.23;12.98;;;;;;;16.28;55.29;98293.98;1787524;80;28233;-61
2024/04/01 23:51:17;;;;;;;66.25;10.35;;;;;;;16.23;55.88;98286.41;1787314;80;25609;-60
2024/04/01 23:53:45;;;;;;;66.00;11.40;;;;;;;16.17;55.61;98278.43;1787361;80;25374;-61
2024/04/01 23:56:12;;;;;;;65.10;11.93;;;;;;;16.14;56.25;98274.36;1787292;80;25617;-61
2024/04/01 23:58:39;;;;;;;61.28;11.50;;;;;;;16.06;56.30;98275.75;1787418;80;25639;-60
